createdAt,value
2017-10-08T00:00:18.188Z,17.32
2017-10-08T00:00:46.324Z,17.36
2017-10-08T00:01:14.303Z,17.35
2017-10-08T00:01:42.314Z,17.38
2017-10-08T00:02:10.200Z,17.38
2017-10-08T00:02:38.283Z,17.38
2017-10-08T00:03:06.178Z,17.31
2017-10-08T00:03:34.218Z,17.35
2017-10-08T00:04:02.215Z,17.38
2017-10-08T00:04:30.214Z,17.36
2017-10-08T00:04:58.360Z,17.31
2017-10-08T00:05:26.467Z,17.32
2017-10-08T00:05:54.469Z,17.39
2017-10-08T00:06:22.374Z,17.35
2017-10-08T00:06:50.361Z,17.32
2017-10-08T00:07:18.391Z,17.32
2017-10-08T00:07:46.409Z,17.32
2017-10-08T00:08:14.496Z,17.3
2017-10-08T00:08:42.385Z,17.28
2017-10-08T00:09:10.158Z,17.31
2017-10-08T00:09:38.264Z,17.27
2017-10-08T00:10:06.038Z,17.38
2017-10-08T00:10:34.211Z,17.38
2017-10-08T00:11:02.135Z,17.3
2017-10-08T00:11:30.176Z,17.35
2017-10-08T00:11:57.955Z,17.31
2017-10-08T00:12:25.944Z,17.35
2017-10-08T00:12:54.088Z,17.39
2017-10-08T00:13:22.005Z,17.28
2017-10-08T00:13:49.997Z,17.38
2017-10-08T00:14:18.083Z,17.31
2017-10-08T00:14:45.989Z,17.31
2017-10-08T00:15:14.166Z,17.28
2017-10-08T00:15:42.148Z,17.38
2017-10-08T00:16:10.039Z,17.31
2017-10-08T00:16:37.822Z,17.38
2017-10-08T00:17:05.589Z,17.3
2017-10-08T00:17:33.558Z,17.28
2017-10-08T00:18:01.454Z,17.31
2017-10-08T00:18:29.462Z,17.31
2017-10-08T00:18:57.364Z,17.28
2017-10-08T00:19:25.390Z,17.28
2017-10-08T00:19:53.484Z,17.35
2017-10-08T00:20:21.781Z,17.31
2017-10-08T00:20:49.791Z,17.28
2017-10-08T00:21:17.672Z,17.32
2017-10-08T00:21:45.586Z,17.32
2017-10-08T00:22:13.499Z,17.28
2017-10-08T00:22:41.380Z,17.31
2017-10-08T00:23:09.263Z,17.3
2017-10-08T00:23:37.262Z,17.35
2017-10-08T00:24:05.369Z,17.35
2017-10-08T00:24:33.372Z,17.32
2017-10-08T00:25:01.058Z,17.32
2017-10-08T00:25:29.215Z,17.32
2017-10-08T00:25:56.910Z,17.3
2017-10-08T00:26:24.996Z,17.32
2017-10-08T00:26:52.966Z,17.35
2017-10-08T00:27:20.967Z,17.35
2017-10-08T00:27:48.751Z,17.32
2017-10-08T00:28:16.732Z,17.32
2017-10-08T00:28:44.658Z,17.38
2017-10-08T00:29:12.431Z,17.25
2017-10-08T00:29:40.323Z,17.38
2017-10-08T00:30:08.428Z,17.35
2017-10-08T00:30:36.557Z,17.3
2017-10-08T00:31:04.459Z,17.36
2017-10-08T00:31:32.252Z,17.31
2017-10-08T00:32:00.343Z,17.38
2017-10-08T00:32:28.245Z,17.31
2017-10-08T00:32:56.236Z,17.3
2017-10-08T00:33:24.264Z,17.36
2017-10-08T00:33:52.151Z,17.32
2017-10-08T00:34:20.285Z,17.43
2017-10-08T00:34:48.368Z,17.32
2017-10-08T00:35:16.445Z,17.32
2017-10-08T00:35:44.705Z,17.32
2017-10-08T00:36:12.696Z,17.3
2017-10-08T00:36:40.594Z,17.36
2017-10-08T00:37:08.568Z,17.28
2017-10-08T00:37:36.561Z,17.32
2017-10-08T00:38:04.681Z,17.31
2017-10-08T00:38:32.791Z,17.31
2017-10-08T00:39:00.900Z,17.49
2017-10-08T00:39:28.884Z,17.45
2017-10-08T00:39:56.891Z,17.46
2017-10-08T00:40:25.009Z,17.46
2017-10-08T00:40:53.003Z,17.36
2017-10-08T00:41:20.898Z,17.38
2017-10-08T00:41:48.974Z,17.42
2017-10-08T00:42:17.095Z,17.45
2017-10-08T00:42:45.216Z,17.42
2017-10-08T00:43:13.111Z,17.43
2017-10-08T00:43:40.998Z,17.45
2017-10-08T00:44:09.104Z,17.46
2017-10-08T00:44:37.189Z,17.46
2017-10-08T00:45:05.347Z,17.52
2017-10-08T00:45:33.509Z,17.49
2017-10-08T00:46:01.497Z,17.5
2017-10-08T00:46:29.419Z,17.52
2017-10-08T00:46:57.396Z,17.49
2017-10-08T00:47:25.477Z,17.52
2017-10-08T00:47:53.499Z,17.57
2017-10-08T00:48:21.475Z,17.57
2017-10-08T00:48:49.541Z,17.52
2017-10-08T00:49:17.649Z,17.54
2017-10-08T00:49:45.608Z,17.52
2017-10-08T00:50:13.728Z,17.52
2017-10-08T00:50:41.985Z,17.55
2017-10-08T00:51:10.110Z,17.57
2017-10-08T00:51:37.919Z,17.54
2017-10-08T00:52:06.026Z,17.54
2017-10-08T00:52:34.129Z,17.47
2017-10-08T00:53:02.226Z,17.47
2017-10-08T00:53:30.359Z,17.55
2017-10-08T00:53:58.453Z,17.58
2017-10-08T00:54:26.343Z,17.5
2017-10-08T00:54:54.348Z,17.54
2017-10-08T00:55:22.337Z,17.49
2017-10-08T00:55:50.554Z,17.55
2017-10-08T00:56:18.661Z,17.55
2017-10-08T00:56:46.661Z,17.58
2017-10-08T00:57:14.655Z,17.57
2017-10-08T00:57:42.659Z,17.63
2017-10-08T00:58:10.763Z,17.54
2017-10-08T00:58:38.772Z,17.63
2017-10-08T00:59:06.740Z,17.6
2017-10-08T00:59:34.644Z,17.62
2017-10-08T01:00:02.778Z,17.63
2017-10-08T01:00:30.673Z,17.58
2017-10-08T01:00:58.885Z,17.6
2017-10-08T01:01:26.861Z,17.63
2017-10-08T01:01:54.868Z,17.62
2017-10-08T01:02:22.880Z,17.63
2017-10-08T01:02:50.945Z,17.63
2017-10-08T01:03:18.945Z,17.66
2017-10-08T01:03:47.069Z,17.62
2017-10-08T01:04:14.955Z,17.66
2017-10-08T01:04:42.981Z,17.66
2017-10-08T01:05:10.886Z,17.63
2017-10-08T01:05:39.109Z,17.62
2017-10-08T01:06:07.212Z,17.65
2017-10-08T01:06:35.114Z,17.62
2017-10-08T01:07:03.001Z,17.63
2017-10-08T01:07:30.996Z,17.57
2017-10-08T01:07:59.093Z,17.55
2017-10-08T01:08:27.179Z,17.54
2017-10-08T01:08:55.098Z,17.57
2017-10-08T01:09:23.076Z,17.52
2017-10-08T01:09:51.202Z,17.52
2017-10-08T01:10:19.075Z,17.52
2017-10-08T01:10:47.270Z,17.54
2017-10-08T01:11:15.247Z,17.49
2017-10-08T01:11:43.354Z,17.55
2017-10-08T01:12:11.141Z,17.57
2017-10-08T01:12:39.043Z,17.6
2017-10-08T01:13:06.975Z,17.62
2017-10-08T01:13:34.875Z,17.57
2017-10-08T01:14:02.775Z,17.58
2017-10-08T01:14:30.794Z,17.62
2017-10-08T01:14:58.782Z,17.62
2017-10-08T01:15:26.760Z,17.65
2017-10-08T01:15:55.097Z,17.62
2017-10-08T01:16:23.013Z,17.58
2017-10-08T01:16:51.021Z,17.6
2017-10-08T01:17:19.021Z,17.63
2017-10-08T01:17:47.009Z,17.6
2017-10-08T01:18:15.114Z,17.6
2017-10-08T01:18:43.128Z,17.68
2017-10-08T01:19:11.016Z,17.62
2017-10-08T01:19:39.023Z,17.6
2017-10-08T01:20:07.018Z,17.58
2017-10-08T01:20:34.847Z,17.65
2017-10-08T01:21:03.112Z,17.6
2017-10-08T01:21:31.129Z,17.57
2017-10-08T01:21:58.904Z,17.52
2017-10-08T01:22:26.896Z,17.52
2017-10-08T01:22:54.914Z,17.5
2017-10-08T01:23:23.051Z,17.6
2017-10-08T01:23:51.038Z,17.63
2017-10-08T01:24:18.838Z,17.57
2017-10-08T01:24:46.955Z,17.63
2017-10-08T01:25:14.864Z,17.5
2017-10-08T01:25:42.759Z,17.52
2017-10-08T01:26:10.841Z,17.54
2017-10-08T01:26:38.706Z,17.52
2017-10-08T01:27:06.779Z,17.52
2017-10-08T01:27:34.867Z,17.52
2017-10-08T01:28:02.988Z,17.55
2017-10-08T01:28:30.875Z,17.49
2017-10-08T01:28:58.676Z,17.52
2017-10-08T01:29:26.687Z,17.49
2017-10-08T01:29:54.679Z,17.5
2017-10-08T01:30:22.777Z,17.52
2017-10-08T01:30:51.051Z,17.58
2017-10-08T01:31:19.046Z,17.54
2017-10-08T01:31:47.026Z,17.5
2017-10-08T01:32:15.010Z,17.55
2017-10-08T01:32:43.009Z,17.54
2017-10-08T01:33:11.128Z,17.49
2017-10-08T01:33:39.056Z,17.52
2017-10-08T01:34:07.146Z,17.5
2017-10-08T01:34:35.236Z,17.54
2017-10-08T01:35:03.085Z,17.52
2017-10-08T01:35:31.154Z,17.54
2017-10-08T01:35:59.359Z,17.5
2017-10-08T01:36:27.473Z,17.54
2017-10-08T01:36:55.479Z,17.5
2017-10-08T01:37:23.551Z,17.57
2017-10-08T01:37:51.569Z,17.5
2017-10-08T01:38:19.579Z,17.5
2017-10-08T01:38:47.507Z,17.55
2017-10-08T01:39:15.590Z,17.46
2017-10-08T01:40:15.202Z,17.54
2017-10-08T01:40:43.224Z,17.5
2017-10-08T01:41:11.371Z,17.54
2017-10-08T01:41:39.349Z,17.47
2017-10-08T01:42:07.331Z,17.47
2017-10-08T01:42:35.433Z,17.5
2017-10-08T01:43:03.537Z,17.54
2017-10-08T01:43:31.648Z,17.52
2017-10-08T01:43:59.621Z,17.54
2017-10-08T01:44:27.723Z,17.55
2017-10-08T01:44:55.650Z,17.47
2017-10-08T01:45:23.722Z,17.55
2017-10-08T01:45:51.821Z,17.54
2017-10-08T01:46:20.067Z,17.52
2017-10-08T01:46:48.173Z,17.49
2017-10-08T01:47:16.193Z,17.5
2017-10-08T01:47:44.100Z,17.47
2017-10-08T01:48:12.124Z,17.57
2017-10-08T01:48:40.216Z,17.52
2017-10-08T01:49:08.223Z,17.54
2017-10-08T01:49:36.214Z,17.54
2017-10-08T01:50:04.140Z,17.57
2017-10-08T01:50:32.131Z,17.49
2017-10-08T01:51:00.108Z,17.5
2017-10-08T01:51:28.228Z,17.57
2017-10-08T01:51:56.336Z,17.46
2017-10-08T01:52:24.408Z,17.5
2017-10-08T01:52:52.209Z,17.5
2017-10-08T01:53:20.109Z,17.52
2017-10-08T01:53:47.920Z,17.46
2017-10-08T01:54:15.935Z,17.4
2017-10-08T01:54:43.948Z,17.42
2017-10-08T01:55:12.043Z,17.45
2017-10-08T01:55:40.042Z,17.45
2017-10-08T01:56:08.343Z,17.4
2017-10-08T01:56:36.482Z,17.49
2017-10-08T01:57:04.606Z,17.45
2017-10-08T01:57:32.601Z,17.49
2017-10-08T01:58:00.493Z,17.49
2017-10-08T01:58:28.616Z,17.43
2017-10-08T01:58:56.526Z,17.47
2017-10-08T01:59:24.634Z,17.45
2017-10-08T01:59:52.744Z,17.46
2017-10-08T02:00:20.844Z,17.49
2017-10-08T02:00:48.845Z,17.43
2017-10-08T02:01:17.063Z,17.43
2017-10-08T02:01:45.047Z,17.49
2017-10-08T02:02:12.953Z,17.5
2017-10-08T02:02:41.083Z,17.46
2017-10-08T02:03:08.987Z,17.45
2017-10-08T02:03:37.082Z,17.4
2017-10-08T02:04:05.071Z,17.39
2017-10-08T02:04:33.221Z,17.4
2017-10-08T02:05:01.301Z,17.46
2017-10-08T02:05:29.288Z,17.43
2017-10-08T02:05:57.258Z,17.45
2017-10-08T02:06:25.491Z,17.35
2017-10-08T02:06:53.591Z,17.4
2017-10-08T02:07:21.511Z,17.38
2017-10-08T02:07:49.528Z,17.4
2017-10-08T02:08:17.612Z,17.38
2017-10-08T02:08:45.590Z,17.42
2017-10-08T02:09:13.678Z,17.4
2017-10-08T02:09:41.623Z,17.38
2017-10-08T02:10:09.747Z,17.45
2017-10-08T02:10:37.667Z,17.43
2017-10-08T02:11:05.693Z,17.36
2017-10-08T02:11:33.547Z,17.38
2017-10-08T02:12:01.437Z,17.39
2017-10-08T02:12:29.444Z,17.46
2017-10-08T02:12:57.551Z,17.39
2017-10-08T02:13:25.570Z,17.32
2017-10-08T02:13:53.665Z,17.36
2017-10-08T02:14:21.684Z,17.39
2017-10-08T02:14:49.766Z,17.42
2017-10-08T02:15:17.553Z,17.42
2017-10-08T02:15:45.633Z,17.39
2017-10-08T02:16:13.694Z,17.38
2017-10-08T02:16:42.033Z,17.38
2017-10-08T02:17:09.899Z,17.38
2017-10-08T02:17:38.008Z,17.31
2017-10-08T02:18:06.015Z,17.4
2017-10-08T02:18:34.127Z,17.35
2017-10-08T02:19:02.248Z,17.36
2017-10-08T02:19:30.128Z,17.32
2017-10-08T02:19:58.114Z,17.31
2017-10-08T02:20:25.995Z,17.35
2017-10-08T02:20:54.078Z,17.3
2017-10-08T02:21:22.119Z,17.32
2017-10-08T02:21:50.233Z,17.27
2017-10-08T02:22:18.117Z,17.28
2017-10-08T02:22:46.186Z,17.31
2017-10-08T02:23:14.166Z,17.35
2017-10-08T02:23:42.059Z,17.3
2017-10-08T02:24:10.163Z,17.39
2017-10-08T02:24:38.074Z,17.38
2017-10-08T02:25:06.086Z,17.36
2017-10-08T02:25:34.087Z,17.35
2017-10-08T02:26:02.165Z,17.32
2017-10-08T02:26:30.444Z,17.36
2017-10-08T02:26:58.534Z,17.35
2017-10-08T02:27:26.402Z,17.32
2017-10-08T02:27:54.412Z,17.32
2017-10-08T02:28:22.505Z,17.32
2017-10-08T02:28:50.628Z,17.35
2017-10-08T02:29:18.733Z,17.32
2017-10-08T02:29:46.748Z,17.22
2017-10-08T02:30:14.818Z,17.36
2017-10-08T02:30:42.817Z,17.35
2017-10-08T02:31:10.819Z,17.2
2017-10-08T02:31:39.033Z,17.25
2017-10-08T02:32:06.935Z,17.27
2017-10-08T02:32:35.028Z,17.17
2017-10-08T02:33:03.132Z,17.12
2017-10-08T02:33:31.222Z,17.18
2017-10-08T02:33:59.224Z,17.21
2017-10-08T02:34:27.302Z,17.12
2017-10-08T02:34:55.408Z,17.12
2017-10-08T02:35:23.520Z,17.13
2017-10-08T02:35:51.631Z,17.17
2017-10-08T02:36:19.512Z,17.18
2017-10-08T02:36:47.754Z,17.12
2017-10-08T02:37:15.755Z,17.13
2017-10-08T02:37:43.845Z,17.17
2017-10-08T02:38:11.902Z,17.15
2017-10-08T02:38:39.945Z,17.13
2017-10-08T02:39:08.085Z,17.12
2017-10-08T02:39:36.166Z,17.1
2017-10-08T02:40:04.051Z,17.15
2017-10-08T02:40:32.132Z,17.17
2017-10-08T02:41:00.266Z,17.13
2017-10-08T02:41:28.265Z,17.18
2017-10-08T02:41:56.429Z,17.1
2017-10-08T02:42:24.324Z,17.13
2017-10-08T02:42:52.312Z,17.18
2017-10-08T02:43:20.295Z,17.17
2017-10-08T02:43:48.323Z,17.17
2017-10-08T02:44:16.402Z,17.21
2017-10-08T02:44:44.310Z,17.22
2017-10-08T02:45:12.431Z,17.18
2017-10-08T02:45:40.433Z,17.12
2017-10-08T02:46:08.440Z,17.21
2017-10-08T02:46:36.526Z,17.17
2017-10-08T02:47:04.624Z,17.12
2017-10-08T02:47:32.641Z,17.21
2017-10-08T02:48:00.747Z,17.1
2017-10-08T02:48:28.757Z,17.15
2017-10-08T02:48:56.762Z,17.15
2017-10-08T02:49:24.686Z,17.22
2017-10-08T02:49:52.592Z,17.27
2017-10-08T02:50:20.586Z,17.2
2017-10-08T02:50:48.670Z,17.17
2017-10-08T02:51:16.795Z,17.25
2017-10-08T02:51:45.076Z,17.2
2017-10-08T02:52:12.867Z,17.25
2017-10-08T02:52:40.759Z,17.21
2017-10-08T02:53:08.768Z,17.22
2017-10-08T02:53:36.880Z,17.25
2017-10-08T02:54:04.975Z,17.32
2017-10-08T02:54:32.971Z,17.3
2017-10-08T02:55:01.075Z,17.25
2017-10-08T02:55:29.064Z,17.35
2017-10-08T02:55:57.055Z,17.31
2017-10-08T02:56:25.180Z,17.31
2017-10-08T02:56:53.434Z,17.38
2017-10-08T02:57:21.594Z,17.3
2017-10-08T02:57:49.697Z,17.32
2017-10-08T02:58:17.697Z,17.32
2017-10-08T02:58:45.783Z,17.35
2017-10-08T02:59:13.787Z,17.31
2017-10-08T02:59:41.798Z,17.35
2017-10-08T03:00:09.699Z,17.35
2017-10-08T03:00:37.805Z,17.38
2017-10-08T03:01:05.843Z,17.36
2017-10-08T03:01:33.934Z,17.4
2017-10-08T03:02:02.059Z,17.38
2017-10-08T03:02:30.170Z,17.36
2017-10-08T03:02:58.092Z,17.36
2017-10-08T03:03:26.013Z,17.36
2017-10-08T03:03:54.088Z,17.31
2017-10-08T03:04:21.959Z,17.28
2017-10-08T03:04:49.869Z,17.32
2017-10-08T03:05:17.980Z,17.28
2017-10-08T03:05:46.079Z,17.3
2017-10-08T03:06:14.119Z,17.32
2017-10-08T03:06:42.231Z,17.36
2017-10-08T03:07:10.307Z,17.31
2017-10-08T03:07:38.438Z,17.36
2017-10-08T03:08:06.490Z,17.32
2017-10-08T03:08:34.433Z,17.36
2017-10-08T03:09:02.385Z,17.32
2017-10-08T03:09:30.272Z,17.3
2017-10-08T03:09:58.377Z,17.28
2017-10-08T03:10:26.450Z,17.31
2017-10-08T03:10:54.535Z,17.38
2017-10-08T03:11:22.426Z,17.36
2017-10-08T03:11:50.462Z,17.38
2017-10-08T03:12:18.459Z,17.32
2017-10-08T03:12:46.237Z,17.3
2017-10-08T03:13:14.234Z,17.32
2017-10-08T03:13:42.246Z,17.32
2017-10-08T03:14:10.352Z,17.28
2017-10-08T03:14:38.483Z,17.3
2017-10-08T03:15:06.578Z,17.31
2017-10-08T03:15:34.707Z,17.3
2017-10-08T03:16:02.609Z,17.32
2017-10-08T03:16:30.708Z,17.31
2017-10-08T03:16:58.661Z,17.28
2017-10-08T03:17:26.662Z,17.31
2017-10-08T03:17:54.694Z,17.3
2017-10-08T03:18:22.697Z,17.31
2017-10-08T03:18:50.767Z,17.31
2017-10-08T03:19:18.865Z,17.28
2017-10-08T03:19:46.949Z,17.28
2017-10-08T03:20:14.832Z,17.32
2017-10-08T03:20:42.825Z,17.35
2017-10-08T03:21:10.858Z,17.32
2017-10-08T03:21:38.835Z,17.31
2017-10-08T03:22:07.058Z,17.32
2017-10-08T03:22:35.050Z,17.36
2017-10-08T03:23:03.043Z,17.38
2017-10-08T03:23:31.145Z,17.36
2017-10-08T03:23:59.235Z,17.32
2017-10-08T03:24:27.238Z,17.32
2017-10-08T03:24:55.213Z,17.32
2017-10-08T03:25:23.175Z,17.36
2017-10-08T03:25:51.170Z,17.3
2017-10-08T03:26:19.167Z,17.32
2017-10-08T03:26:47.168Z,17.36
2017-10-08T03:27:15.452Z,17.35
2017-10-08T03:27:43.523Z,17.36
2017-10-08T03:28:11.526Z,17.36
2017-10-08T03:28:39.414Z,17.35
2017-10-08T03:29:07.533Z,17.35
2017-10-08T03:29:35.547Z,17.25
2017-10-08T03:30:03.562Z,17.31
2017-10-08T03:30:31.647Z,17.35
2017-10-08T03:30:59.704Z,17.25
2017-10-08T03:31:27.805Z,17.2
2017-10-08T03:31:55.785Z,17.22
2017-10-08T03:32:24.054Z,17.17
2017-10-08T03:32:52.134Z,17.22
2017-10-08T03:33:20.157Z,17.24
2017-10-08T03:33:48.164Z,17.22
2017-10-08T03:34:16.168Z,17.3
2017-10-08T03:34:44.164Z,17.25
2017-10-08T03:35:12.173Z,17.22
2017-10-08T03:35:40.281Z,17.17
2017-10-08T03:36:08.279Z,17.35
2017-10-08T03:36:36.366Z,17.3
2017-10-08T03:37:04.341Z,17.2
2017-10-08T03:37:32.338Z,17.35
2017-10-08T03:38:00.454Z,17.22
2017-10-08T03:38:28.503Z,17.38
2017-10-08T03:38:56.622Z,17.21
2017-10-08T03:39:24.536Z,17.35
2017-10-08T03:39:52.616Z,17.24
2017-10-08T03:40:20.729Z,17.21
2017-10-08T03:40:48.739Z,17.21
2017-10-08T03:41:16.754Z,17.24
2017-10-08T03:41:44.752Z,17.32
2017-10-08T03:42:13.016Z,17.3
2017-10-08T03:42:41.012Z,17.21
2017-10-08T03:43:09.107Z,17.22
2017-10-08T03:43:37.090Z,17.32
2017-10-08T03:44:05.174Z,17.36
2017-10-08T03:44:33.256Z,17.25
2017-10-08T03:45:01.343Z,17.38
2017-10-08T03:45:29.331Z,17.22
2017-10-08T03:45:57.135Z,17.35
2017-10-08T03:46:25.107Z,17.32
2017-10-08T03:46:53.016Z,17.32
2017-10-08T03:47:21.160Z,17.36
2017-10-08T03:47:49.038Z,17.32
2017-10-08T03:48:16.848Z,17.36
2017-10-08T03:48:44.816Z,17.32
2017-10-08T03:49:12.937Z,17.36
2017-10-08T03:49:40.951Z,17.36
2017-10-08T03:50:08.952Z,17.25
2017-10-08T03:50:36.921Z,17.39
2017-10-08T03:51:05.000Z,17.3
2017-10-08T03:51:32.979Z,17.36
2017-10-08T03:52:00.890Z,17.36
2017-10-08T03:52:29.239Z,17.32
2017-10-08T03:52:57.357Z,17.35
2017-10-08T03:53:25.257Z,17.35
2017-10-08T03:53:53.345Z,17.36
2017-10-08T03:54:21.274Z,17.32
2017-10-08T03:54:49.186Z,17.36
2017-10-08T03:55:17.116Z,17.35
2017-10-08T03:55:45.188Z,17.36
2017-10-08T03:56:13.183Z,17.3
2017-10-08T03:56:41.297Z,17.38
2017-10-08T03:57:09.396Z,17.32
2017-10-08T03:57:37.539Z,17.32
2017-10-08T03:58:05.543Z,17.35
2017-10-08T03:58:33.609Z,17.31
2017-10-08T03:59:01.547Z,17.31
2017-10-08T03:59:29.516Z,17.31
2017-10-08T03:59:57.522Z,17.35
2017-10-08T04:00:25.625Z,17.32
2017-10-08T04:00:53.602Z,17.35
2017-10-08T04:01:21.601Z,17.3
2017-10-08T04:01:49.603Z,17.31
2017-10-08T04:02:17.783Z,17.36
2017-10-08T04:02:45.684Z,17.31
2017-10-08T04:03:13.759Z,17.31
2017-10-08T04:03:41.846Z,17.35
2017-10-08T04:04:09.744Z,17.35
2017-10-08T04:04:37.669Z,17.31
2017-10-08T04:05:05.753Z,17.36
2017-10-08T04:05:33.898Z,17.35
2017-10-08T04:06:01.867Z,17.36
2017-10-08T04:06:29.754Z,17.35
2017-10-08T04:06:57.873Z,17.31
2017-10-08T04:07:25.884Z,17.35
2017-10-08T04:07:53.968Z,17.38
2017-10-08T04:08:22.067Z,17.36
2017-10-08T04:08:50.074Z,17.4
2017-10-08T04:09:18.011Z,17.36
2017-10-08T04:09:46.012Z,17.39
2017-10-08T04:10:14.102Z,17.42
2017-10-08T04:10:42.183Z,17.42
2017-10-08T04:11:10.307Z,17.35
2017-10-08T04:11:38.327Z,17.39
2017-10-08T04:12:06.428Z,17.4
2017-10-08T04:12:34.715Z,17.38
2017-10-08T04:13:02.807Z,17.32
2017-10-08T04:13:30.945Z,17.38
2017-10-08T04:13:59.044Z,17.36
2017-10-08T04:14:27.195Z,17.35
2017-10-08T04:14:55.312Z,17.3
2017-10-08T04:15:23.391Z,17.36
2017-10-08T04:15:51.220Z,17.31
2017-10-08T04:16:19.353Z,17.36
2017-10-08T04:16:47.361Z,17.32
2017-10-08T04:17:15.505Z,17.36
2017-10-08T04:17:43.697Z,17.31
2017-10-08T04:18:11.718Z,17.38
2017-10-08T04:18:39.744Z,17.35
2017-10-08T04:19:07.815Z,17.32
2017-10-08T04:19:35.711Z,17.36
2017-10-08T04:20:03.712Z,17.32
2017-10-08T04:20:31.693Z,17.35
2017-10-08T04:20:59.615Z,17.3
2017-10-08T04:21:27.632Z,17.36
2017-10-08T04:21:55.719Z,17.28
2017-10-08T04:22:23.700Z,17.38
2017-10-08T04:22:51.799Z,17.28
2017-10-08T04:23:19.800Z,17.32
2017-10-08T04:23:47.802Z,17.38
2017-10-08T04:24:15.784Z,17.32
2017-10-08T04:24:43.904Z,17.31
2017-10-08T04:25:12.007Z,17.36
2017-10-08T04:25:39.973Z,17.31
2017-10-08T04:26:07.977Z,17.31
2017-10-08T04:26:36.065Z,17.36
2017-10-08T04:27:04.171Z,17.31
2017-10-08T04:27:32.422Z,17.3
2017-10-08T04:28:00.539Z,17.35
2017-10-08T04:28:28.442Z,17.31
2017-10-08T04:28:56.559Z,17.35
2017-10-08T04:29:24.576Z,17.35
2017-10-08T04:29:52.492Z,17.32
2017-10-08T04:30:20.508Z,17.36
2017-10-08T04:30:48.510Z,17.36
2017-10-08T04:31:16.645Z,17.39
2017-10-08T04:31:44.656Z,17.47
2017-10-08T04:32:12.781Z,17.43
2017-10-08T04:32:41.033Z,17.36
2017-10-08T04:33:09.155Z,17.39
2017-10-08T04:33:37.260Z,17.46
2017-10-08T04:34:05.383Z,17.36
2017-10-08T04:34:33.490Z,17.39
2017-10-08T04:35:01.548Z,17.32
2017-10-08T04:35:29.641Z,17.31
2017-10-08T04:35:57.634Z,17.3
2017-10-08T04:36:25.733Z,17.32
2017-10-08T04:36:53.630Z,17.38
2017-10-08T04:37:21.724Z,17.32
2017-10-08T04:37:49.911Z,17.35
2017-10-08T04:38:18.001Z,17.35
2017-10-08T04:38:45.859Z,17.2
2017-10-08T04:39:13.871Z,17.24
2017-10-08T04:39:41.865Z,17.15
2017-10-08T04:40:09.863Z,17.21
2017-10-08T04:40:37.846Z,17.27
2017-10-08T04:41:05.762Z,17.24
2017-10-08T04:41:33.860Z,17.2
2017-10-08T04:42:01.959Z,17.12
2017-10-08T04:42:30.064Z,17.3
2017-10-08T04:42:58.162Z,17.2
2017-10-08T04:43:26.241Z,17.22
2017-10-08T04:43:54.247Z,17.1
2017-10-08T04:44:22.265Z,17.22
2017-10-08T04:44:50.281Z,17.17
2017-10-08T04:45:18.278Z,17.21
2017-10-08T04:45:46.362Z,17.17
2017-10-08T04:46:14.451Z,17.21
2017-10-08T04:46:42.427Z,17.1
2017-10-08T04:47:10.554Z,17.12
2017-10-08T04:47:38.581Z,17.2
2017-10-08T04:48:06.641Z,17.1
2017-10-08T04:48:34.616Z,17.21
2017-10-08T04:49:02.723Z,17.18
2017-10-08T04:49:30.714Z,17.22
2017-10-08T04:49:58.810Z,17.13
2017-10-08T04:50:26.785Z,17.24
2017-10-08T04:50:54.671Z,17.18
2017-10-08T04:51:22.763Z,17.17
2017-10-08T04:51:50.742Z,17.18
2017-10-08T04:52:18.714Z,17.24
2017-10-08T04:52:46.997Z,17.1
2017-10-08T04:53:14.904Z,17.18
2017-10-08T04:53:42.989Z,17.13
2017-10-08T04:54:10.871Z,17.2
2017-10-08T04:54:38.898Z,17.17
2017-10-08T04:55:06.995Z,17.13
2017-10-08T04:55:35.026Z,17.21
2017-10-08T04:56:03.042Z,17.13
2017-10-08T04:56:31.041Z,17.15
2017-10-08T04:56:59.036Z,17.1
2017-10-08T04:57:27.037Z,17.12
2017-10-08T04:57:55.121Z,17.15
2017-10-08T04:58:23.239Z,17.18
2017-10-08T04:58:51.327Z,17.2
2017-10-08T04:59:19.344Z,17.09
2017-10-08T04:59:47.422Z,17.13
2017-10-08T05:00:15.423Z,17.17
2017-10-08T05:00:43.561Z,17.17
2017-10-08T05:01:11.644Z,17.12
2017-10-08T05:01:39.544Z,17.17
2017-10-08T05:02:07.638Z,17.17
2017-10-08T05:02:35.461Z,17.13
2017-10-08T05:03:03.596Z,17.18
2017-10-08T05:03:31.677Z,17.13
2017-10-08T05:03:59.517Z,17.18
2017-10-08T05:04:27.507Z,17.12
2017-10-08T05:04:55.367Z,17.18
2017-10-08T05:05:23.479Z,17.12
2017-10-08T05:05:51.566Z,17.15
2017-10-08T05:06:19.574Z,17.18
2017-10-08T05:06:47.664Z,17.18
2017-10-08T05:07:15.677Z,17.15
2017-10-08T05:07:43.692Z,17.13
2017-10-08T05:08:11.924Z,17.18
2017-10-08T05:08:40.033Z,17.22
2017-10-08T05:09:07.732Z,17.17
2017-10-08T05:09:35.654Z,17.18
2017-10-08T05:10:03.655Z,17.13
2017-10-08T05:10:31.764Z,17.13
2017-10-08T05:10:59.890Z,17.1
2017-10-08T05:11:28.011Z,17.12
2017-10-08T05:11:56.019Z,17.09
2017-10-08T05:12:24.101Z,17.12
2017-10-08T05:12:52.193Z,17.13
2017-10-08T05:13:20.336Z,17.09
2017-10-08T05:13:48.231Z,17.17
2017-10-08T05:14:16.321Z,17.09
2017-10-08T05:14:44.426Z,17.09
2017-10-08T05:15:12.505Z,17.1
2017-10-08T05:15:40.589Z,17.15
2017-10-08T05:16:08.631Z,17.13
2017-10-08T05:16:36.703Z,17.09
2017-10-08T05:17:04.689Z,17.17
2017-10-08T05:17:32.789Z,17.17
2017-10-08T05:18:01.018Z,17.15
2017-10-08T05:18:29.012Z,17.18
2017-10-08T05:18:57.103Z,17.06
2017-10-08T05:19:25.225Z,17.17
2017-10-08T05:19:53.250Z,17.1
2017-10-08T05:20:21.397Z,17.12
2017-10-08T05:20:49.501Z,17.12
2017-10-08T05:21:17.588Z,17.09
2017-10-08T05:21:45.575Z,17.13
2017-10-08T05:22:13.679Z,17.13
2017-10-08T05:22:41.710Z,17.09
2017-10-08T05:23:09.912Z,17.07
2017-10-08T05:23:37.986Z,17.09
2017-10-08T05:24:06.100Z,17.07
2017-10-08T05:24:34.212Z,17.07
2017-10-08T05:25:02.102Z,17.07
2017-10-08T05:25:29.993Z,17.1
2017-10-08T05:25:58.089Z,17.07
2017-10-08T05:26:26.042Z,17.12
2017-10-08T05:26:54.144Z,17.09
2017-10-08T05:27:21.946Z,17.05
2017-10-08T05:27:49.716Z,16.99
2017-10-08T05:28:17.953Z,17.03
2017-10-08T05:28:45.940Z,17.07
2017-10-08T05:29:14.064Z,16.99
2017-10-08T05:29:42.170Z,17.07
2017-10-08T05:30:10.167Z,17.02
2017-10-08T05:30:38.258Z,16.91
2017-10-08T05:31:06.332Z,16.95
2017-10-08T05:31:34.310Z,16.91
2017-10-08T05:32:02.418Z,16.94
2017-10-08T05:32:30.514Z,16.94
2017-10-08T05:32:58.612Z,16.91
2017-10-08T05:33:26.809Z,16.95
2017-10-08T05:33:54.802Z,16.97
2017-10-08T05:34:22.886Z,16.99
2017-10-08T05:34:50.872Z,16.97
2017-10-08T05:35:18.987Z,16.95
2017-10-08T05:35:47.135Z,16.97
2017-10-08T05:36:15.026Z,17
2017-10-08T05:36:43.013Z,16.94
2017-10-08T05:37:11.076Z,16.94
2017-10-08T05:37:39.082Z,16.95
2017-10-08T05:38:07.174Z,16.87
2017-10-08T05:38:35.364Z,16.9
2017-10-08T05:39:03.377Z,16.9
2017-10-08T05:39:31.367Z,16.91
2017-10-08T05:39:59.459Z,16.91
2017-10-08T05:40:27.297Z,16.88
2017-10-08T05:40:55.397Z,16.88
2017-10-08T05:41:23.403Z,16.91
2017-10-08T05:41:51.398Z,16.87
2017-10-08T05:42:19.493Z,16.88
2017-10-08T05:42:47.283Z,16.9
2017-10-08T05:43:15.457Z,16.88
2017-10-08T05:43:43.543Z,16.92
2017-10-08T05:44:11.560Z,16.94
2017-10-08T05:44:39.705Z,16.91
2017-10-08T05:45:07.706Z,16.95
2017-10-08T05:45:35.700Z,17.02
2017-10-08T05:46:03.835Z,17.02
2017-10-08T05:46:31.866Z,16.87
2017-10-08T05:46:59.763Z,16.9
2017-10-08T05:47:27.835Z,16.92
2017-10-08T05:47:55.735Z,16.9
2017-10-08T05:48:23.836Z,16.9
2017-10-08T05:48:51.842Z,16.91
2017-10-08T05:49:19.974Z,16.91
2017-10-08T05:49:48.078Z,16.91
2017-10-08T05:50:16.174Z,16.88
2017-10-08T05:50:43.984Z,16.94
2017-10-08T05:51:12.079Z,16.95
2017-10-08T05:51:40.155Z,16.91
2017-10-08T05:52:08.270Z,16.92
2017-10-08T05:52:36.396Z,16.99
2017-10-08T05:53:04.458Z,16.99
2017-10-08T05:53:32.569Z,16.95
2017-10-08T05:54:00.448Z,16.94
2017-10-08T05:54:28.469Z,16.97
2017-10-08T05:54:56.552Z,17
2017-10-08T05:55:24.455Z,16.91
2017-10-08T05:55:52.476Z,16.99
2017-10-08T05:56:20.624Z,16.94
2017-10-08T05:56:48.762Z,16.99
2017-10-08T05:57:16.804Z,16.9
2017-10-08T05:57:44.898Z,17
2017-10-08T05:58:12.994Z,16.91
2017-10-08T05:58:41.230Z,16.94
2017-10-08T05:59:09.304Z,17.03
2017-10-08T05:59:37.232Z,16.99
2017-10-08T06:00:05.307Z,16.97
2017-10-08T06:00:33.316Z,16.97
2017-10-08T06:01:01.315Z,16.91
2017-10-08T06:01:29.307Z,16.97
2017-10-08T06:01:57.393Z,17.02
2017-10-08T06:02:25.510Z,16.9
2017-10-08T06:02:53.412Z,17.02
2017-10-08T06:03:21.304Z,16.94